This is the latest recevied weather packets stored in our database for station/object TA2NC-13. If no packets are shown the sender has not sent any weather packets the latest 10 day(s).
| Time | Temp. | Humidity | Pressure | Rain* | Wind** | Luminosity | Snow |
|---|---|---|---|---|---|---|---|
| 1777527000 | 11.11° C | 52% | 1017 hPa | 0 mm | - | - | - |
| 1777526400 | 10° C | 57% | 1017 hPa | 0 mm | - | - | - |
| 1777525800 | 8.89° C | 57% | 1017 hPa | 0 mm | - | - | - |
| 1777525200 | 8.33° C | 62% | 1017 hPa | 0 mm | - | - | - |
| 1777524600 | 7.22° C | 66% | 1017 hPa | 0 mm | - | - | - |
| 1777524000 | 6.67° C | 67% | 1017 hPa | 0 mm | - | - | - |
| 1777523400 | 6.11° C | 69% | 1017 hPa | 0 mm | - | - | - |
| 1777522800 | 5.56° C | 72% | 1017 hPa | 0 mm | - | - | - |
| 1777522200 | 5° C | 72% | 1017 hPa | 0 mm | - | - | - |
| 1777521600 | 5° C | 71% | 1017 hPa | 0 mm | - | - | - |
| 1777521000 | 5° C | 70% | 1017 hPa | 0 mm | - | - | - |
| 1777520400 | 4.44° C | 71% | 1017 hPa | 0 mm | - | - | - |
| 1777519800 | 4.44° C | 71% | 1017 hPa | 0 mm | - | - | - |
| 1777519200 | 4.44° C | 70% | 1017 hPa | 0 mm | - | - | - |
| 1777518600 | 4.44° C | 71% | 1017 hPa | 0 mm | - | - | - |
| 1777518000 | 4.44° C | 70% | 1017 hPa | 0 mm | - | - | - |
| 1777517400 | 5° C | 70% | 1017 hPa | 0 mm | - | - | - |
| 1777516800 | 5° C | 70% | 1017 hPa | 0 mm | - | - | - |
| 1777516200 | 5° C | 70% | 1017 hPa | 0 mm | - | - | - |
| 1777515600 | 5° C | 69% | 1017 hPa | 0 mm | - | - | - |
| 1777515000 | 5° C | 69% | 1017 hPa | 0 mm | - | - | - |
| 1777514400 | 5° C | 69% | 1017 hPa | 0 mm | - | - | - |
| 1777513800 | 5° C | 69% | 1017 hPa | 0 mm | - | - | - |
| 1777512600 | 5° C | 68% | 1017 hPa | 0 mm | - | - | - |
| 1777512000 | 5° C | 68% | 1017 hPa | 0 mm | - | - | - |
* Rain latest hour (hover to see other rain measurements)
** Current wind speed in m/s (hover to see current wind gust speed)